Time;durP1;ratioP1;P1;durP2;ratioP2;P2;SDS_P1;SDS_P2;PMS_P1;PMS_P2;Temp;Humidity;BMP_temperature;BMP_pressure;BME280_temperature;BME280_humidity;BME280_pressure;Samples;Min_cycle;Max_cycle;Signal;HPM_P1;HPM_P2
2024/01/19 00:01:26;;;;;;;;;;;11.50;40.50;;;11.64;42.90;100335.41;5022981;28;19931;-35
2024/01/19 00:03:54;;;;;;;;;;;11.50;40.50;;;11.62;43.17;100331.81;5031693;28;19967;-36
2024/01/19 00:06:23;;;;;;;;;;;11.50;40.50;;;11.61;43.40;100337.56;5031745;28;19925;-36
2024/01/19 00:08:51;;;;;;;;;;;11.50;40.50;;;11.62;43.12;100331.81;5031685;28;20420;-36
2024/01/19 00:11:19;;;;;;;;;;;11.50;40.50;;;11.63;43.11;100334.50;5031024;28;19925;-36
2024/01/19 00:13:47;;;;;;;;;;;11.50;40.40;;;11.64;43.22;100340.41;5031501;28;19933;-35
2024/01/19 00:16:15;;;;;;;;;;;11.50;40.50;;;11.64;43.50;100345.44;5031384;28;19925;-35
2024/01/19 00:18:43;;;;;;;;;;;11.50;40.50;;;11.67;43.15;100348.31;5031902;28;20371;-36
2024/01/19 00:21:11;;;;;;;;;;;11.50;40.50;;;11.65;43.58;100347.22;5031230;28;19926;-35
2024/01/19 00:23:40;;;;;;;;;;;11.50;40.50;;;11.61;43.23;100340.06;5031886;28;19979;-36
2024/01/19 00:26:08;;;;;;;;;;;11.40;40.40;;;11.67;43.35;100345.81;5031622;28;20040;-36
2024/01/19 00:28:36;;;;;;;;;;;11.50;40.40;;;11.64;43.77;100351.34;5031685;28;20012;-36
2024/01/19 00:31:04;;;;;;;;;;;11.50;40.40;;;11.63;43.44;100358.72;5031050;28;19929;-36
2024/01/19 00:33:32;;;;;;;;;;;11.50;40.50;;;11.60;43.53;100363.34;5031382;28;20385;-36
2024/01/19 00:36:00;;;;;;;;;;;11.50;40.50;;;11.62;43.06;100367.84;5031796;28;19925;-36
2024/01/19 00:38:28;;;;;;;;;;;11.50;40.40;;;11.61;43.58;100370.16;5033614;28;19925;-36
2024/01/19 00:40:57;;;;;;;;;;;11.50;40.50;;;11.60;43.66;100370.88;5037498;28;19932;-36
2024/01/19 00:43:25;;;;;;;;;;;11.40;40.40;;;11.61;43.34;100375.19;5042472;28;20483;-36
2024/01/19 00:45:53;;;;;;;;;;;11.40;40.40;;;11.59;43.44;100374.09;5037558;28;20012;-35
2024/01/19 00:48:21;;;;;;;;;;;11.50;40.50;;;11.62;43.64;100371.97;5035793;28;19976;-35
2024/01/19 00:50:50;;;;;;;;;;;11.50;40.40;;;11.57;43.25;100368.03;5034630;28;19933;-35
2024/01/19 00:53:18;;;;;;;;;;;11.40;40.40;;;11.59;43.28;100379.13;5034878;28;20392;-35
2024/01/19 00:55:46;;;;;;;;;;;11.40;40.40;;;11.62;42.91;100382.00;5035095;28;19925;-35
2024/01/19 00:58:15;;;;;;;;;;;11.40;40.40;;;11.62;42.92;100382.00;5035440;28;19935;-35
2024/01/19 01:00:43;;;;;;;;;;;11.40;40.40;;;11.58;42.87;100379.81;5034767;28;19925;-35
2024/01/19 01:03:11;;;;;;;;;;;11.40;40.40;;;11.58;43.59;100387.34;5035110;28;19925;-35
2024/01/19 01:05:39;;;;;;;;;;;11.40;40.40;;;11.58;43.14;100394.88;5034885;28;20016;-35
2024/01/19 01:08:07;;;;;;;;;;;11.40;40.40;;;11.57;43.14;100398.13;5034723;28;19948;-35
2024/01/19 01:10:35;;;;;;;;;;;11.40;40.30;;;11.59;43.85;100396.69;5034546;28;20007;-35
2024/01/19 01:13:03;;;;;;;;;;;11.40;40.40;;;11.59;43.45;100396.69;5035430;28;19925;-35
2024/01/19 01:15:32;;;;;;;;;;;11.40;40.40;;;11.54;43.43;100393.63;5034724;28;20456;-35
2024/01/19 01:18:00;;;;;;;;;;;11.40;40.40;;;11.56;43.30;100388.78;5035145;28;20020;-35
2024/01/19 01:20:28;;;;;;;;;;;11.40;40.40;;;11.55;43.27;100389.50;5034617;28;19929;-35
2024/01/19 01:22:56;;;;;;;;;;;11.40;40.40;;;11.57;43.06;100393.13;5033991;28;19940;-35
2024/01/19 01:25:24;;;;;;;;;;;11.40;40.40;;;11.55;43.09;100399.53;5034711;28;20393;-35
2024/01/19 01:27:52;;;;;;;;;;;11.40;40.40;;;11.57;43.40;100401.50;5035133;28;19925;-35
2024/01/19 01:30:20;;;;;;;;;;;11.40;40.40;;;11.55;42.75;100405.47;5034480;28;20385;-35
2024/01/19 01:32:49;;;;;;;;;;;11.40;40.40;;;11.57;42.89;100410.66;5034031;28;19928;-35
2024/01/19 01:35:18;;;;;;;;;;;11.40;40.40;;;11.55;42.88;100410.47;5034759;28;19939;-35
2024/01/19 01:37:45;;;;;;;;;;;11.40;40.40;;;11.56;43.47;100418.91;5034786;28;19929;-35
2024/01/19 01:40:13;;;;;;;;;;;11.40;40.50;;;11.55;43.18;100414.59;5034494;28;19925;-35
2024/01/19 01:42:41;;;;;;;;;;;11.40;40.40;;;11.57;43.07;100411.53;5033964;28;19932;-35
2024/01/19 01:45:09;;;;;;;;;;;11.40;40.40;;;11.59;43.04;100416.75;5034689;28;19976;-35
2024/01/19 01:47:37;;;;;;;;;;;11.40;40.40;;;11.53;43.25;100419.41;5035017;28;19929;-35
2024/01/19 01:50:08;;;;;;;;;;;11.40;40.40;;;11.56;43.36;100421.41;5033902;28;20077;-35
2024/01/19 01:52:36;;;;;;;;;;;11.40;40.40;;;11.54;43.55;100417.81;5025696;28;19925;-35
2024/01/19 01:55:05;;;;;;;;;;;11.40;40.40;;;11.54;43.24;100425.34;5034248;28;19931;-35
2024/01/19 01:57:33;;;;;;;;;;;11.40;40.40;;;11.56;42.97;100426.44;5034245;28;19975;-35
2024/01/19 02:00:01;;;;;;;;;;;11.40;40.40;;;11.57;43.41;100433.25;5034648;28;20028;-35
2024/01/19 02:02:29;;;;;;;;;;;11.40;40.30;;;11.57;43.13;100430.75;5033158;28;20023;-35
2024/01/19 02:04:56;;;;;;;;;;;11.40;40.40;;;11.56;43.66;100432.34;5034129;28;19979;-35
2024/01/19 02:07:26;;;;;;;;;;;11.40;40.30;;;11.57;42.76;100435.75;5034030;28;20320;-35
2024/01/19 02:09:54;;;;;;;;;;;11.40;40.30;;;11.56;43.01;100431.44;5034085;28;19971;-35
2024/01/19 02:12:22;;;;;;;;;;;11.40;40.90;;;11.55;43.52;100434.66;5032779;28;20300;-35
2024/01/19 02:14:50;;;;;;;;;;;11.40;40.30;;;11.53;43.08;100441.09;5033876;28;19980;-35
2024/01/19 02:17:18;;;;;;;;;;;11.40;40.30;;;11.54;43.43;100442.91;5034235;28;19929;-35
2024/01/19 02:19:46;;;;;;;;;;;11.40;40.30;;;11.56;43.62;100444.91;5033734;28;19925;-35
2024/01/19 02:22:14;;;;;;;;;;;11.40;40.20;;;11.56;43.35;100444.00;5032709;28;19925;-35
2024/01/19 02:24:43;;;;;;;;;;;11.40;40.30;;;11.56;43.61;100444.00;5033329;28;19925;-35
2024/01/19 02:27:11;;;;;;;;;;;11.40;40.30;;;11.59;42.86;100451.88;5034310;28;20091;-35
2024/01/19 02:29:39;;;;;;;;;;;11.40;40.20;;;11.57;42.89;100454.19;5034894;28;19931;-35
2024/01/19 02:32:07;;;;;;;;;;;11.40;40.20;;;11.56;43.09;100456.53;5033066;28;20011;-35
2024/01/19 02:34:35;;;;;;;;;;;11.40;40.20;;;11.58;43.60;100465.13;5033441;28;19929;-35
2024/01/19 02:37:03;;;;;;;;;;;11.40;40.20;;;11.16;43.04;100390.53;5033634;28;19968;-35
2024/01/19 02:39:31;;;;;;;;;;;11.40;40.20;;;11.56;43.17;100466.59;5030445;28;19932;-35
2024/01/19 02:42:00;;;;;;;;;;;11.40;40.20;;;11.61;43.25;100470.53;5027537;28;20011;-35
2024/01/19 02:44:28;;;;;;;;;;;11.40;40.20;;;11.64;43.24;100476.81;5033269;28;20060;-35
2024/01/19 02:46:56;;;;;;;;;;;11.40;40.10;;;11.59;43.32;100476.97;5033290;28;19926;-35
2024/01/19 02:49:24;;;;;;;;;;;11.40;40.10;;;11.63;43.43;100481.69;5033953;28;19931;-35
2024/01/19 02:51:52;;;;;;;;;;;11.40;40.10;;;11.63;43.53;100489.22;5032846;28;20370;-35
2024/01/19 02:54:20;;;;;;;;;;;11.40;40.10;;;11.62;43.51;100477.38;5035828;28;19940;-35
2024/01/19 02:56:48;;;;;;;;;;;11.50;40.20;;;11.62;43.58;100482.38;5037068;28;20408;-35
2024/01/19 02:59:18;;;;;;;;;;;11.50;40.20;;;11.60;42.99;100481.28;5036540;28;19964;-35
2024/01/19 03:01:46;;;;;;;;;;;11.50;40.20;;;11.64;43.08;100485.97;5034474;28;19929;-35
2024/01/19 03:04:14;;;;;;;;;;;11.50;40.20;;;11.62;42.77;100487.41;5035836;28;20385;-35
2024/01/19 03:06:42;;;;;;;;;;;11.50;40.10;;;11.62;42.93;100487.41;5033070;28;19932;-35
2024/01/19 03:09:10;;;;;;;;;;;11.50;40.10;;;11.63;42.44;100486.69;5032930;28;19925;-35
2024/01/19 03:11:38;;;;;;;;;;;11.50;40.10;;;11.62;43.02;100489.91;5032035;28;19925;-35
2024/01/19 03:14:05;;;;;;;;;;;11.50;40.10;;;11.61;42.61;100475.56;5033198;28;19975;-35
2024/01/19 03:16:35;;;;;;;;;;;11.50;40.10;;;11.65;43.14;100487.75;5032905;28;20605;-35
2024/01/19 03:19:05;;;;;;;;;;;11.50;40.00;;;11.65;43.42;100483.66;5033510;28;19925;-35
2024/01/19 03:21:33;;;;;;;;;;;11.50;40.10;;;11.62;43.29;100497.44;5031917;28;20027;-35
2024/01/19 03:24:01;;;;;;;;;;;11.50;40.00;;;11.62;43.07;100497.44;5033013;28;19985;-35
2024/01/19 03:26:29;;;;;;;;;;;11.50;40.10;;;11.63;43.58;100499.25;5032423;28;19928;-35
2024/01/19 03:28:57;;;;;;;;;;;11.50;40.00;;;11.64;43.18;100501.91;5032534;28;19925;-35
2024/01/19 03:31:25;;;;;;;;;;;11.50;40.00;;;11.64;43.01;100501.91;5031802;28;20423;-35
2024/01/19 03:33:55;;;;;;;;;;;11.50;40.10;;;11.63;42.90;100509.28;5032429;28;19980;-35
2024/01/19 03:36:24;;;;;;;;;;;11.50;40.10;;;11.63;42.65;100506.78;5032055;28;19981;-35
2024/01/19 03:38:52;;;;;;;;;;;11.50;40.00;;;11.61;42.88;100510.69;5032440;28;20447;-35
2024/01/19 03:41:20;;;;;;;;;;;11.50;40.00;;;11.61;43.17;100508.19;5032211;28;19925;-35
2024/01/19 03:43:47;;;;;;;;;;;11.40;40.00;;;11.59;42.89;100507.09;5033559;28;19925;-35
2024/01/19 03:46:15;;;;;;;;;;;11.40;40.00;;;11.56;43.26;100511.75;5033449;28;20431;-35
2024/01/19 03:48:43;;;;;;;;;;;11.40;40.00;;;11.55;42.73;100507.44;5024590;28;20011;-35
2024/01/19 03:51:12;;;;;;;;;;;11.40;40.00;;;11.57;42.80;100513.56;5031615;28;20297;-35
2024/01/19 03:53:42;;;;;;;;;;;11.40;40.00;;;11.54;42.78;100513.16;5032035;28;20024;-35
2024/01/19 03:56:10;;;;;;;;;;;11.40;40.00;;;11.57;43.11;100521.09;5040640;28;20436;-35
2024/01/19 03:58:38;;;;;;;;;;;11.40;40.10;;;11.57;43.51;100524.47;5032091;28;19925;-35
2024/01/19 04:01:07;;;;;;;;;;;11.40;40.10;;;11.57;43.10;100523.59;5032039;28;19925;-35
2024/01/19 04:03:35;;;;;;;;;;;11.40;40.10;;;11.60;42.91;100518.94;5032475;28;19925;-35
2024/01/19 04:06:04;;;;;;;;;;;11.40;40.00;;;11.58;42.86;100510.31;5032909;28;19933;-38
2024/01/19 04:08:33;;;;;;;;;;;11.40;40.00;;;11.56;42.75;100521.78;5032278;28;19932;-35
2024/01/19 04:11:01;;;;;;;;;;;11.40;40.00;;;11.55;42.90;100530.00;5031504;28;20153;-36
2024/01/19 04:13:29;;;;;;;;;;;11.40;40.10;;;11.55;42.85;100533.44;5035772;28;19972;-36
2024/01/19 04:15:57;;;;;;;;;;;11.40;40.00;;;11.57;42.98;100528.59;5036173;28;19932;-36
2024/01/19 04:18:25;;;;;;;;;;;11.40;40.10;;;11.55;42.76;100545.06;5036411;28;19925;-36
2024/01/19 04:20:53;;;;;;;;;;;11.40;40.00;;;11.56;42.52;100537.75;5035655;28;19983;-36
2024/01/19 04:23:21;;;;;;;;;;;11.40;40.10;;;11.54;43.34;100534.13;5035683;28;19924;-36
2024/01/19 04:25:50;;;;;;;;;;;11.40;40.00;;;11.57;43.08;100543.66;5035622;28;19951;-36
2024/01/19 04:28:18;;;;;;;;;;;11.40;40.00;;;11.54;42.53;100543.25;5035537;28;19975;-35
2024/01/19 04:30:46;;;;;;;;;;;11.40;40.00;;;11.55;42.98;100550.09;5034900;28;19929;-36
2024/01/19 04:33:14;;;;;;;;;;;11.40;40.00;;;11.55;43.23;100545.06;5035543;28;20008;-36
2024/01/19 04:35:42;;;;;;;;;;;11.40;40.00;;;11.56;42.95;100547.78;5035824;28;20036;-35
2024/01/19 04:38:10;;;;;;;;;;;11.40;40.00;;;11.56;43.00;100554.41;5035916;28;19925;-36
2024/01/19 04:40:38;;;;;;;;;;;11.40;40.00;;;11.57;43.08;100558.72;5035242;28;19940;-36
2024/01/19 04:43:07;;;;;;;;;;;11.40;40.00;;;11.56;42.68;100551.91;5035261;28;19975;-36
2024/01/19 04:45:35;;;;;;;;;;;11.40;40.00;;;11.56;42.98;100556.91;5035411;28;20303;-36
2024/01/19 04:48:03;;;;;;;;;;;11.40;40.00;;;11.57;42.65;100563.75;5035407;28;19964;-36
2024/01/19 04:50:32;;;;;;;;;;;11.40;39.90;;;11.53;43.12;100566.56;5035972;28;19929;-36
2024/01/19 04:52:59;;;;;;;;;;;11.40;39.90;;;11.55;42.86;100565.16;5034433;28;19925;-36
2024/01/19 04:55:27;;;;;;;;;;;11.40;40.00;;;11.57;42.30;100563.75;5034996;28;19925;-36
2024/01/19 04:57:55;;;;;;;;;;;11.40;40.00;;;11.58;42.75;100575.53;5035675;28;20015;-36
2024/01/19 05:00:25;;;;;;;;;;;11.40;39.90;;;11.51;42.76;100575.50;5035139;28;20363;-36
2024/01/19 05:02:52;;;;;;;;;;;11.40;39.90;;;11.53;42.63;100586.63;5034364;28;20004;-36
2024/01/19 05:05:21;;;;;;;;;;;11.40;40.00;;;11.55;42.93;100587.72;5034850;28;20499;-33
2024/01/19 05:07:49;;;;;;;;;;;11.40;40.50;;;11.54;43.40;100590.94;5035054;28;19925;-34
2024/01/19 05:10:17;;;;;;;;;;;11.40;40.00;;;11.52;43.19;100595.75;5035026;28;20381;-36
2024/01/19 05:12:45;;;;;;;;;;;11.40;40.00;;;11.55;43.08;100600.28;5034115;28;20341;-35
2024/01/19 05:15:13;;;;;;;;;;;11.40;40.00;;;11.53;42.67;100606.69;5035842;28;19929;-35
2024/01/19 05:17:42;;;;;;;;;;;11.40;40.00;;;11.55;42.67;100610.31;5035142;28;19940;-35
2024/01/19 05:20:12;;;;;;;;;;;11.40;40.00;;;11.53;42.87;100616.72;5035336;28;19929;-35
2024/01/19 05:22:39;;;;;;;;;;;11.40;40.00;;;11.53;42.77;100621.75;5034115;28;19936;-35
2024/01/19 05:25:08;;;;;;;;;;;11.40;40.00;;;11.52;43.02;100619.94;5034336;28;20415;-36
2024/01/19 05:27:36;;;;;;;;;;;11.40;40.00;;;11.50;42.86;100619.78;5035226;28;19926;-36
2024/01/19 05:30:05;;;;;;;;;;;11.30;40.00;;;11.52;42.83;100624.97;5035585;28;19971;-38
2024/01/19 05:32:34;;;;;;;;;;;11.40;40.00;;;11.54;43.34;100623.56;5036730;28;19935;-36
2024/01/19 05:35:04;;;;;;;;;;;11.40;40.00;;;11.51;42.43;100628.19;5035176;28;19935;-36
2024/01/19 05:37:32;;;;;;;;;;;11.40;40.00;;;11.51;43.42;100628.19;5035175;28;19925;-36
2024/01/19 05:40:00;;;;;;;;;;;11.40;40.00;;;11.55;42.81;100630.38;5035574;28;19925;-36
2024/01/19 05:42:28;;;;;;;;;;;11.40;40.00;;;11.53;43.01;100631.78;5033882;28;19925;-36
2024/01/19 05:44:56;;;;;;;;;;;11.40;40.00;;;11.43;42.81;100628.84;5034155;28;19925;-36
2024/01/19 05:47:24;;;;;;;;;;;11.30;40.00;;;11.51;42.76;100638.22;5034030;28;19926;-36
2024/01/19 05:49:52;;;;;;;;;;;11.40;40.00;;;11.50;42.56;100641.47;5034025;28;19925;-36
2024/01/19 05:52:21;;;;;;;;;;;11.40;40.00;;;11.51;43.17;100648.25;5033344;28;19925;-36
2024/01/19 05:54:49;;;;;;;;;;;11.40;40.00;;;11.52;43.12;100655.06;5026295;28;19964;-36
2024/01/19 05:57:17;;;;;;;;;;;11.40;39.90;;;11.53;42.59;100661.91;5034174;28;20301;-36
2024/01/19 05:59:45;;;;;;;;;;;11.40;39.90;;;11.50;42.95;100671.56;5033770;28;19932;-36
2024/01/19 06:02:13;;;;;;;;;;;11.30;39.90;;;11.52;43.03;100670.13;5033038;28;20012;-36
2024/01/19 06:04:41;;;;;;;;;;;11.40;40.00;;;11.48;42.45;100672.97;5033726;28;19925;-36
2024/01/19 06:07:09;;;;;;;;;;;11.30;39.90;;;11.50;42.75;100684.13;5033397;28;19932;-36
2024/01/19 06:09:38;;;;;;;;;;;11.30;39.80;;;11.49;43.16;100669.75;5033753;28;19975;-36
2024/01/19 06:12:07;;;;;;;;;;;11.30;39.80;;;11.45;42.68;100665.03;5032719;28;19932;-36
2024/01/19 06:14:34;;;;;;;;;;;11.30;39.80;;;11.47;42.89;100671.16;5033607;28;19931;-36
2024/01/19 06:17:03;;;;;;;;;;;11.30;40.50;;;11.44;43.13;100670.78;5034100;28;19933;-36
2024/01/19 06:19:31;;;;;;;;;;;11.30;40.00;;;11.47;42.89;100668.66;5034291;28;19926;-36
2024/01/19 06:21:59;;;;;;;;;;;11.30;40.00;;;11.43;42.39;100699.09;5033995;28;19925;-35
2024/01/19 06:24:29;;;;;;;;;;;11.30;40.10;;;11.37;42.93;100693.31;5035740;28;20308;-35
2024/01/19 06:26:58;;;;;;;;;;;11.20;40.00;;;11.33;43.07;100696.09;5038032;28;19972;-35
2024/01/19 06:29:27;;;;;;;;;;;11.20;40.00;;;11.32;43.62;100696.84;5036814;28;19944;-35
2024/01/19 06:31:54;;;;;;;;;;;11.20;40.10;;;11.28;43.55;100703.97;5035400;28;20447;-35
2024/01/19 06:34:22;;;;;;;;;;;11.20;40.10;;;11.26;43.08;100705.34;5035537;28;19932;-36
2024/01/19 06:36:50;;;;;;;;;;;11.10;40.20;;;11.26;43.38;100695.31;5025800;28;19975;-36
2024/01/19 06:39:18;;;;;;;;;;;11.20;40.20;;;11.25;43.28;100706.06;5033930;28;19925;-36
2024/01/19 06:41:46;;;;;;;;;;;11.10;40.20;;;11.26;43.37;100707.88;5032374;28;19931;-35
2024/01/19 06:44:16;;;;;;;;;;;11.10;40.90;;;11.23;43.49;100710.00;5033942;28;19925;-35
2024/01/19 06:46:44;;;;;;;;;;;11.10;40.20;;;11.26;43.59;100715.38;5033442;28;19933;-36
2024/01/19 06:49:12;;;;;;;;;;;11.10;40.20;;;11.26;43.55;100715.38;5033859;28;19925;-36
2024/01/19 06:51:40;;;;;;;;;;;11.10;40.20;;;11.23;43.40;100704.09;5032637;28;19979;-35
2024/01/19 06:54:09;;;;;;;;;;;11.20;40.20;;;11.40;43.46;100728.78;5033094;28;19936;-36
2024/01/19 06:56:37;;;;;;;;;;;11.20;40.20;;;11.39;43.06;100737.03;5033041;28;19979;-35
2024/01/19 06:59:05;;;;;;;;;;;11.20;40.10;;;11.38;42.87;100741.13;5033624;28;19932;-35
2024/01/19 07:01:38;;;;;;;;;;;11.30;40.10;;;11.41;43.00;100746.56;5032617;28;19929;-36
2024/01/19 07:04:06;;;;;;;;;;;11.30;40.10;;;11.43;42.87;100750.19;5033113;28;20013;-36
2024/01/19 07:06:34;;;;;;;;;;;11.30;40.10;;;11.41;42.66;100735.63;5033283;28;19929;-35
2024/01/19 07:09:02;;;;;;;;;;;11.30;40.10;;;11.47;42.86;100762.41;5035032;28;19935;-35
2024/01/19 07:11:31;;;;;;;;;;;11.30;39.90;;;11.47;43.19;100771.53;5026627;28;19925;-35
2024/01/19 07:13:59;;;;;;;;;;;11.30;40.00;;;11.45;42.72;100777.94;5043041;22;19939;-36
2024/01/19 07:16:27;;;;;;;;;;;11.30;39.90;;;11.48;42.66;100763.31;5032844;28;20328;-35
2024/01/19 07:18:56;;;;;;;;;;;11.30;40.00;;;11.44;42.81;100761.13;5032574;28;19925;-36
2024/01/19 07:21:24;;;;;;;;;;;11.30;40.00;;;11.47;43.46;100769.91;5031855;28;20024;-36
2024/01/19 07:23:52;;;;;;;;;;;11.30;40.00;;;11.45;43.10;100768.81;5032342;28;19932;-36
2024/01/19 07:26:20;;;;;;;;;;;11.30;40.00;;;11.48;42.95;100778.34;5032428;28;20361;-36
2024/01/19 07:28:48;;;;;;;;;;;11.30;40.00;;;11.50;42.93;100781.97;5032362;28;19983;-36
2024/01/19 07:31:16;;;;;;;;;;;11.30;40.00;;;11.51;42.70;100773.72;5031739;28;20346;-37
2024/01/19 07:33:44;;;;;;;;;;;11.30;39.90;;;11.49;43.12;100780.16;5031856;28;19925;-36
2024/01/19 07:36:15;;;;;;;;;;;11.30;40.00;;;11.51;43.23;100783.75;5032099;28;20381;-36
2024/01/19 07:38:43;;;;;;;;;;;11.30;40.00;;;11.51;43.15;100788.75;5032058;28;19931;-35
2024/01/19 07:41:11;;;;;;;;;;;11.30;40.00;;;11.48;42.53;100793.41;5031934;28;19940;-35
2024/01/19 07:43:39;;;;;;;;;;;11.30;40.00;;;11.48;42.91;100794.31;5031786;28;19925;-35
2024/01/19 07:46:08;;;;;;;;;;;11.30;40.00;;;11.51;43.58;100803.81;5031624;28;20454;-36
2024/01/19 07:48:35;;;;;;;;;;;11.30;40.00;;;11.47;42.88;100814.19;5032688;28;19972;-35
2024/01/19 07:51:04;;;;;;;;;;;11.30;40.00;;;11.51;43.35;100823.91;5031708;28;19948;-36
2024/01/19 07:53:33;;;;;;;;;;;11.30;40.10;;;11.47;43.23;100832.66;5032067;28;20016;-35
2024/01/19 07:56:01;;;;;;;;;;;11.30;40.00;;;11.47;43.10;100841.78;5031893;28;19995;-36
2024/01/19 07:58:29;;;;;;;;;;;11.30;40.10;;;11.49;43.18;100835.38;5031889;28;19932;-37
2024/01/19 08:00:57;;;;;;;;;;;11.30;40.10;;;11.47;43.04;100834.25;5023400;28;20013;-36
2024/01/19 08:03:25;;;;;;;;;;;11.30;40.10;;;11.46;43.10;100832.44;5032296;28;19925;-36
2024/01/19 08:05:53;;;;;;;;;;;11.30;40.10;;;11.47;43.10;100851.81;5032068;28;19931;-36
2024/01/19 08:08:21;;;;;;;;;;;11.30;40.10;;;11.49;42.75;100845.41;5035041;28;19925;-36
2024/01/19 08:10:50;;;;;;;;;;;11.30;40.10;;;11.48;43.22;100853.63;5031663;28;19926;-36
2024/01/19 08:13:18;;;;;;;;;;;11.30;40.10;;;11.47;42.68;100856.84;5031462;28;20308;-36
2024/01/19 08:15:46;;;;;;;;;;;11.40;40.10;;;11.49;42.86;100865.47;5031905;28;20269;-36
2024/01/19 08:18:14;;;;;;;;;;;11.30;40.10;;;11.48;43.08;100862.06;5031851;28;19929;-35
2024/01/19 08:20:42;;;;;;;;;;;11.40;40.10;;;11.48;42.99;100866.16;5030917;28;20274;-36
2024/01/19 08:23:10;;;;;;;;;;;11.40;40.10;;;11.48;42.87;100863.66;5031814;28;19929;-36
2024/01/19 08:25:38;;;;;;;;;;;11.40;40.10;;;11.47;43.27;100871.88;5031656;28;19980;-35
2024/01/19 08:28:07;;;;;;;;;;;11.40;40.10;;;11.50;42.82;100878.22;5031505;28;20038;-36
2024/01/19 08:30:35;;;;;;;;;;;11.40;40.10;;;11.53;43.35;100883.63;5031578;28;19925;-36
2024/01/19 08:33:04;;;;;;;;;;;11.40;40.10;;;11.55;42.73;100881.31;5031105;28;20389;-36
2024/01/19 08:35:32;;;;;;;;;;;11.40;40.10;;;11.52;43.21;100886.84;5031534;28;19931;-36
2024/01/19 08:38:00;;;;;;;;;;;11.40;40.10;;;11.52;42.74;100880.91;5032148;28;20037;-36
2024/01/19 08:40:28;;;;;;;;;;;11.40;40.10;;;11.55;43.20;100896.38;5031563;28;20012;-36
2024/01/19 08:42:56;;;;;;;;;;;11.40;40.10;;;11.53;43.44;100900.28;5030782;28;19925;-36
2024/01/19 08:45:28;;;;;;;;;;;11.40;40.10;;;11.53;42.54;100903.69;5028550;28;19948;-35
2024/01/19 08:47:59;;;;;;;;;;;11.40;40.00;;;11.55;43.15;100901.41;5031082;28;20404;-36
2024/01/19 08:50:28;;;;;;;;;;;11.40;40.00;;;11.56;42.80;100908.22;5031633;28;19925;-37
2024/01/19 08:52:56;;;;;;;;;;;11.40;40.00;;;11.52;43.36;100908.50;5031161;28;19925;-36
2024/01/19 08:55:25;;;;;;;;;;;11.40;40.00;;;11.54;42.96;100914.66;5031922;28;19925;-37
2024/01/19 08:57:53;;;;;;;;;;;11.40;40.10;;;11.57;43.00;100915.94;5033137;28;19995;-36
2024/01/19 09:00:21;;;;;;;;;;;11.40;40.10;;;11.58;42.96;100916.84;5035418;28;20023;-36
2024/01/19 09:02:50;;;;;;;;;;;11.40;40.00;;;11.51;42.62;100924.25;5034415;28;19931;-36
2024/01/19 09:05:30;;;;;;;;;;;11.40;40.00;;;11.53;42.98;100921.25;5035286;28;20396;-36
2024/01/19 09:07:58;;;;;;;;;;;11.40;40.10;;;11.53;43.00;100927.88;5022997;28;19929;-35
2024/01/19 09:10:27;;;;;;;;;;;11.40;40.10;;;11.55;43.08;100939.94;5031974;28;20300;-36
2024/01/19 09:12:55;;;;;;;;;;;11.40;40.10;;;11.53;42.93;100952.97;5034828;28;20388;-36
2024/01/19 09:15:23;;;;;;;;;;;11.40;40.10;;;11.54;43.28;100955.69;5035247;28;20434;-36
2024/01/19 09:17:52;;;;;;;;;;;11.40;40.10;;;11.56;42.81;100958.41;5035092;28;20459;-36
2024/01/19 09:20:20;;;;;;;;;;;11.40;40.10;;;11.59;42.90;100968.84;5035744;28;20292;-36
2024/01/19 09:22:48;;;;;;;;;;;11.40;40.70;;;11.54;43.23;100964.84;5043549;28;19929;-35
2024/01/19 09:25:16;;;;;;;;;;;11.40;40.00;;;11.59;42.87;100969.75;5048548;28;20027;-36
2024/01/19 09:27:44;;;;;;;;;;;11.40;40.10;;;11.55;43.38;100967.56;5050490;28;19987;-36
2024/01/19 09:30:13;;;;;;;;;;;11.40;40.00;;;11.57;43.03;100971.13;5039941;28;20016;-36
2024/01/19 09:32:41;;;;;;;;;;;11.40;40.00;;;11.56;43.23;100978.50;5034219;28;19925;-36
2024/01/19 09:35:10;;;;;;;;;;;11.40;40.10;;;11.56;43.20;100978.50;5035021;28;20007;-36
2024/01/19 09:37:38;;;;;;;;;;;11.40;40.10;;;11.60;42.91;100986.63;5034521;28;19929;-36
2024/01/19 09:40:08;;;;;;;;;;;11.40;40.10;;;11.61;42.87;100997.56;5034480;28;19925;-37
2024/01/19 09:42:36;;;;;;;;;;;11.40;40.00;;;11.60;42.45;101000.78;5033494;28;19925;-36
2024/01/19 09:45:05;;;;;;;;;;;11.40;40.00;;;11.63;43.40;101011.22;5034128;28;20088;-36
2024/01/19 09:47:42;;;;;;;;;;;11.40;40.10;;;11.60;42.72;101010.81;5035239;28;19936;-36
2024/01/19 09:50:12;;;;;;;;;;;11.50;40.10;;;11.58;43.42;101022.25;5027445;28;19968;-36
2024/01/19 09:52:48;;;;;;;;;;;11.40;40.10;;;11.61;43.03;101027.69;5033577;28;19925;-37
2024/01/19 09:55:16;;;;;;;;;;;11.50;40.10;;;11.61;42.88;101020.16;5034437;28;19925;-36
2024/01/19 09:57:46;;;;;;;;;;;11.50;40.00;;;11.63;43.24;101026.28;5034139;28;19975;-35
2024/01/19 10:00:14;;;;;;;;;;;11.50;40.10;;;11.62;43.62;101034.50;5034234;28;19951;-36
2024/01/19 10:02:44;;;;;;;;;;;11.50;40.10;;;11.64;42.92;101033.09;5033304;28;20300;-36
2024/01/19 10:05:13;;;;;;;;;;;11.50;40.10;;;11.66;43.18;101042.63;5034164;28;19925;-35
2024/01/19 10:07:42;;;;;;;;;;;11.50;40.00;;;11.67;43.05;101039.44;5033973;28;19932;-37
2024/01/19 10:10:10;;;;;;;;;;;11.50;40.00;;;11.63;42.99;101039.72;5033359;28;19925;-36
2024/01/19 10:12:38;;;;;;;;;;;11.50;40.00;;;11.63;42.47;101036.31;5033134;28;19925;-36
2024/01/19 10:15:08;;;;;;;;;;;11.50;40.10;;;11.69;43.16;101052.19;5033988;28;20021;-36
2024/01/19 10:17:36;;;;;;;;;;;11.50;40.00;;;11.66;42.81;101049.25;5034160;28;19975;-36
2024/01/19 10:20:06;;;;;;;;;;;11.50;40.10;;;11.66;43.50;101044.25;5025804;28;19967;-37
2024/01/19 10:22:35;;;;;;;;;;;11.50;40.00;;;11.66;43.19;101047.66;5032582;28;20385;-37
2024/01/19 10:25:04;;;;;;;;;;;11.50;40.00;;;11.69;43.26;101047.16;5025813;28;20368;-37
2024/01/19 10:27:39;;;;;;;;;;;11.50;40.00;;;11.69;42.73;101047.16;5033616;28;19929;-36
2024/01/19 10:30:09;;;;;;;;;;;11.50;40.00;;;11.65;43.05;101044.94;5026235;28;19925;-36
2024/01/19 10:32:39;;;;;;;;;;;11.50;40.00;;;11.67;42.81;101048.56;5032772;28;19980;-36
2024/01/19 10:35:09;;;;;;;;;;;11.50;40.10;;;11.67;43.37;101044.44;5025385;28;19925;-37
2024/01/19 10:37:38;;;;;;;;;;;11.50;40.00;;;11.68;42.40;101050.38;5033421;28;19971;-36
2024/01/19 10:40:20;;;;;;;;;;;11.50;40.60;;;11.65;42.77;101049.97;5033156;28;19976;-36
2024/01/19 10:42:48;;;;;;;;;;;11.50;40.00;;;11.66;42.87;101051.78;5032498;28;19965;-36
2024/01/19 10:45:21;;;;;;;;;;;11.50;40.10;;;11.68;42.98;101050.38;5033694;28;20388;-35
2024/01/19 10:47:50;;;;;;;;;;;11.50;40.10;;;11.69;42.79;101060.63;5032882;28;20281;-35
2024/01/19 10:50:18;;;;;;;;;;;11.50;40.00;;;11.63;42.70;101056.41;5033016;28;19937;-35
2024/01/19 10:52:48;;;;;;;;;;;11.50;40.00;;;11.63;42.95;101058.91;5032092;28;20081;-34
2024/01/19 10:55:20;;;;;;;;;;;11.50;40.10;;;11.64;43.32;101058.19;5032614;28;20003;-34
2024/01/19 10:57:50;;;;;;;;;;;11.50;40.10;;;11.67;42.71;101056.09;5032484;28;20012;-35
2024/01/19 11:00:22;;;;;;;;;;;11.50;40.20;;;11.62;43.37;101059.63;5032669;28;20019;-34
2024/01/19 11:02:52;;;;;;;;;;;11.50;40.10;;;11.62;43.44;101059.63;5032003;28;19999;-34
2024/01/19 11:05:20;;;;;;;;;;;11.50;40.20;;;11.59;43.13;101054.16;5032581;28;20043;-34
2024/01/19 11:07:51;;;;;;;;;;;11.50;40.20;;;11.58;43.08;101062.41;5031943;28;19932;-35
2024/01/19 11:10:20;;;;;;;;;;;11.50;40.20;;;11.61;42.82;101061.22;5032561;28;20359;-35
2024/01/19 11:12:51;;;;;;;;;;;11.50;40.20;;;11.60;42.88;101061.00;5031468;28;19971;-34
2024/01/19 11:15:27;;;;;;;;;;;11.50;40.20;;;11.65;43.18;101075.06;5032400;28;19968;-35